This is the latest recevied weather packets stored in our database for station/object WV6L-13. If no packets are shown the sender has not sent any weather packets the latest 10 day(s).
| Time | Temp. | Humidity | Pressure | Rain* | Wind** | Luminosity | Snow |
|---|---|---|---|---|---|---|---|
| 1777649095 | 20.56° C | 24% | 926.7 hPa | - | - | - | - |
| 1777648795 | 20.56° C | 24% | 926.5 hPa | - | - | - | - |
| 1777648495 | 19.44° C | 26% | 926.7 hPa | - | - | - | - |
| 1777648195 | 18.89° C | 27% | 926.6 hPa | - | - | - | - |
| 1777647895 | 18.33° C | 29% | 926.6 hPa | - | - | - | - |
| 1777646995 | 19.44° C | 25% | 926.5 hPa | - | - | - | - |
| 1777646395 | 19.44° C | 24% | 926.2 hPa | - | - | - | - |
| 1777646094 | 18.33° C | 26% | 926.4 hPa | - | - | - | - |
| 1777645795 | 16.11° C | 28% | 926.2 hPa | - | - | - | - |
| 1777645495 | 14.44° C | 30% | 926.4 hPa | - | - | - | - |
| 1777645195 | 13.89° C | 33% | 926.1 hPa | - | - | - | - |
| 1777644894 | 13.33° C | 33% | 926.4 hPa | - | - | - | - |
| 1777644595 | 12.78° C | 33% | 926.1 hPa | - | - | - | - |
| 1777643995 | 11.67° C | 34% | 926 hPa | - | - | - | - |
| 1777643696 | 11.67° C | 36% | 926 hPa | - | - | - | - |
| 1777643395 | 11.11° C | 35% | 925.9 hPa | - | - | - | - |
| 1777642795 | 10.56° C | 36% | 925.8 hPa | - | - | - | - |
| 1777642495 | 10° C | 38% | 925.9 hPa | - | - | - | - |
| 1777642195 | 10° C | 37% | 925.5 hPa | - | - | - | - |
| 1777641895 | 10° C | 37% | 925.6 hPa | - | - | - | - |
| 1777638895 | 11.11° C | 34% | 924.9 hPa | - | - | - | - |
| 1777638595 | 11.67° C | 34% | 924.8 hPa | - | - | - | - |
| 1777638295 | 11.67° C | 34% | 924.7 hPa | - | - | - | - |
| 1777637995 | 12.22° C | 32% | 924.8 hPa | - | - | - | - |
| 1777637095 | 12.78° C | 32% | 924.7 hPa | - | - | - | - |
* Rain since midnight (hover to see other rain measurements)
** Current wind speed in m/s (hover to see current wind gust speed)